sensor_id;sensor_type;location;lat;lon;timestamp;temperature;humidity
22450;DHT22;11392;57.390;-2.468;2023-04-24T00:02:07;5.00;99.90
22450;DHT22;11392;57.390;-2.468;2023-04-24T00:04:38;4.90;99.90
22450;DHT22;11392;57.390;-2.468;2023-04-24T00:07:08;4.90;99.90
22450;DHT22;11392;57.390;-2.468;2023-04-24T00:09:35;4.90;99.90
22450;DHT22;11392;57.390;-2.468;2023-04-24T00:12:02;4.90;99.90
22450;DHT22;11392;57.390;-2.468;2023-04-24T00:14:32;4.90;99.90
22450;DHT22;11392;57.390;-2.468;2023-04-24T00:16:59;4.90;99.90
22450;DHT22;11392;57.390;-2.468;2023-04-24T00:19:27;4.90;99.90
22450;DHT22;11392;57.390;-2.468;2023-04-24T00:21:54;4.90;99.90
22450;DHT22;11392;57.390;-2.468;2023-04-24T00:24:21;4.80;99.90
22450;DHT22;11392;57.390;-2.468;2023-04-24T00:26:48;4.90;99.90
22450;DHT22;11392;57.390;-2.468;2023-04-24T00:29:15;4.90;99.90
22450;DHT22;11392;57.390;-2.468;2023-04-24T00:31:42;4.90;99.90
22450;DHT22;11392;57.390;-2.468;2023-04-24T00:34:09;4.90;99.90
22450;DHT22;11392;57.390;-2.468;2023-04-24T00:36:38;4.90;99.90
22450;DHT22;11392;57.390;-2.468;2023-04-24T00:39:05;4.90;99.90
22450;DHT22;11392;57.390;-2.468;2023-04-24T00:41:32;4.90;99.90
22450;DHT22;11392;57.390;-2.468;2023-04-24T00:43:59;4.90;99.90
22450;DHT22;11392;57.390;-2.468;2023-04-24T00:46:26;4.90;99.90
22450;DHT22;11392;57.390;-2.468;2023-04-24T00:48:53;4.90;99.90
22450;DHT22;11392;57.390;-2.468;2023-04-24T00:51:21;4.90;99.90
22450;DHT22;11392;57.390;-2.468;2023-04-24T00:53:48;4.90;99.90
22450;DHT22;11392;57.390;-2.468;2023-04-24T00:56:15;4.90;99.90
22450;DHT22;11392;57.390;-2.468;2023-04-24T00:58:42;4.90;99.90
22450;DHT22;11392;57.390;-2.468;2023-04-24T01:01:10;4.90;99.90
22450;DHT22;11392;57.390;-2.468;2023-04-24T01:03:38;4.90;99.90
22450;DHT22;11392;57.390;-2.468;2023-04-24T01:06:07;4.90;99.90
22450;DHT22;11392;57.390;-2.468;2023-04-24T01:08:36;4.90;99.90
22450;DHT22;11392;57.390;-2.468;2023-04-24T01:11:04;4.90;99.90
22450;DHT22;11392;57.390;-2.468;2023-04-24T01:13:32;4.80;99.90
22450;DHT22;11392;57.390;-2.468;2023-04-24T01:16:00;4.80;99.90
22450;DHT22;11392;57.390;-2.468;2023-04-24T01:18:27;4.80;99.90
22450;DHT22;11392;57.390;-2.468;2023-04-24T01:20:59;4.80;99.90
22450;DHT22;11392;57.390;-2.468;2023-04-24T01:23:31;4.70;99.90
22450;DHT22;11392;57.390;-2.468;2023-04-24T01:25:58;4.70;99.90
22450;DHT22;11392;57.390;-2.468;2023-04-24T01:28:25;4.60;99.90
22450;DHT22;11392;57.390;-2.468;2023-04-24T01:30:53;4.60;99.90
22450;DHT22;11392;57.390;-2.468;2023-04-24T01:33:21;4.50;99.90
22450;DHT22;11392;57.390;-2.468;2023-04-24T01:35:49;4.40;99.90
22450;DHT22;11392;57.390;-2.468;2023-04-24T01:38:16;4.30;99.90
22450;DHT22;11392;57.390;-2.468;2023-04-24T01:40:43;4.10;99.90
22450;DHT22;11392;57.390;-2.468;2023-04-24T01:43:12;3.90;99.90
22450;DHT22;11392;57.390;-2.468;2023-04-24T01:45:39;3.90;99.90
22450;DHT22;11392;57.390;-2.468;2023-04-24T01:48:07;3.80;99.90
22450;DHT22;11392;57.390;-2.468;2023-04-24T01:50:34;3.80;99.90
22450;DHT22;11392;57.390;-2.468;2023-04-24T01:53:01;3.80;99.90
22450;DHT22;11392;57.390;-2.468;2023-04-24T01:55:29;3.80;99.90
22450;DHT22;11392;57.390;-2.468;2023-04-24T01:57:56;3.80;99.90
22450;DHT22;11392;57.390;-2.468;2023-04-24T02:00:23;3.80;99.90
22450;DHT22;11392;57.390;-2.468;2023-04-24T02:02:51;3.80;99.90
22450;DHT22;11392;57.390;-2.468;2023-04-24T02:05:18;3.90;99.90
22450;DHT22;11392;57.390;-2.468;2023-04-24T02:07:46;3.90;99.90
22450;DHT22;11392;57.390;-2.468;2023-04-24T02:10:13;3.90;99.90
22450;DHT22;11392;57.390;-2.468;2023-04-24T02:12:40;4.00;99.90
22450;DHT22;11392;57.390;-2.468;2023-04-24T02:15:07;4.10;99.90
22450;DHT22;11392;57.390;-2.468;2023-04-24T02:17:34;4.10;99.90
22450;DHT22;11392;57.390;-2.468;2023-04-24T02:20:02;4.10;99.90
22450;DHT22;11392;57.390;-2.468;2023-04-24T02:22:29;4.10;99.90
22450;DHT22;11392;57.390;-2.468;2023-04-24T02:24:56;4.20;99.90
22450;DHT22;11392;57.390;-2.468;2023-04-24T02:27:23;4.10;99.90
22450;DHT22;11392;57.390;-2.468;2023-04-24T02:29:50;4.10;99.90
22450;DHT22;11392;57.390;-2.468;2023-04-24T02:32:17;4.10;99.90
22450;DHT22;11392;57.390;-2.468;2023-04-24T02:34:44;4.00;99.90
22450;DHT22;11392;57.390;-2.468;2023-04-24T02:37:11;4.00;99.90
22450;DHT22;11392;57.390;-2.468;2023-04-24T02:39:38;4.00;99.90
22450;DHT22;11392;57.390;-2.468;2023-04-24T02:42:06;3.90;99.90
22450;DHT22;11392;57.390;-2.468;2023-04-24T02:44:34;3.90;99.90
22450;DHT22;11392;57.390;-2.468;2023-04-24T02:47:01;3.90;99.90
22450;DHT22;11392;57.390;-2.468;2023-04-24T02:49:28;3.90;99.90
22450;DHT22;11392;57.390;-2.468;2023-04-24T02:51:55;3.90;99.90
22450;DHT22;11392;57.390;-2.468;2023-04-24T02:54:22;3.90;99.90
22450;DHT22;11392;57.390;-2.468;2023-04-24T02:56:49;3.90;99.90
22450;DHT22;11392;57.390;-2.468;2023-04-24T02:59:17;4.00;99.90
22450;DHT22;11392;57.390;-2.468;2023-04-24T03:01:44;4.10;99.90
22450;DHT22;11392;57.390;-2.468;2023-04-24T03:04:11;4.10;99.90
22450;DHT22;11392;57.390;-2.468;2023-04-24T03:06:38;4.10;99.90
22450;DHT22;11392;57.390;-2.468;2023-04-24T03:09:05;4.20;99.90
22450;DHT22;11392;57.390;-2.468;2023-04-24T03:11:32;4.20;99.90
22450;DHT22;11392;57.390;-2.468;2023-04-24T03:13:59;4.20;99.90
22450;DHT22;11392;57.390;-2.468;2023-04-24T03:16:26;4.20;99.90
22450;DHT22;11392;57.390;-2.468;2023-04-24T03:18:54;4.20;99.90
22450;DHT22;11392;57.390;-2.468;2023-04-24T03:21:20;4.30;99.90
22450;DHT22;11392;57.390;-2.468;2023-04-24T03:23:47;4.30;99.90
22450;DHT22;11392;57.390;-2.468;2023-04-24T03:26:14;4.30;99.90
22450;DHT22;11392;57.390;-2.468;2023-04-24T03:28:41;4.30;99.90
22450;DHT22;11392;57.390;-2.468;2023-04-24T03:31:09;4.30;99.90
22450;DHT22;11392;57.390;-2.468;2023-04-24T03:33:36;4.30;99.90
22450;DHT22;11392;57.390;-2.468;2023-04-24T03:36:03;4.40;99.90
22450;DHT22;11392;57.390;-2.468;2023-04-24T03:38:31;4.40;99.90
22450;DHT22;11392;57.390;-2.468;2023-04-24T03:40:58;4.40;99.90
22450;DHT22;11392;57.390;-2.468;2023-04-24T03:43:26;4.40;99.90
22450;DHT22;11392;57.390;-2.468;2023-04-24T03:45:54;4.40;99.90
22450;DHT22;11392;57.390;-2.468;2023-04-24T03:48:21;4.40;99.90
22450;DHT22;11392;57.390;-2.468;2023-04-24T03:50:48;4.30;99.90
22450;DHT22;11392;57.390;-2.468;2023-04-24T03:53:15;4.30;99.90
22450;DHT22;11392;57.390;-2.468;2023-04-24T03:55:42;4.20;99.90
22450;DHT22;11392;57.390;-2.468;2023-04-24T03:58:10;4.10;99.90
22450;DHT22;11392;57.390;-2.468;2023-04-24T04:00:38;4.10;99.90
22450;DHT22;11392;57.390;-2.468;2023-04-24T04:03:07;4.00;99.90
22450;DHT22;11392;57.390;-2.468;2023-04-24T04:05:34;4.00;99.90
22450;DHT22;11392;57.390;-2.468;2023-04-24T04:08:01;4.00;99.90
22450;DHT22;11392;57.390;-2.468;2023-04-24T04:10:28;3.90;99.90
22450;DHT22;11392;57.390;-2.468;2023-04-24T04:12:55;3.80;99.90
22450;DHT22;11392;57.390;-2.468;2023-04-24T04:15:22;3.90;99.90
22450;DHT22;11392;57.390;-2.468;2023-04-24T04:17:49;3.90;99.90
22450;DHT22;11392;57.390;-2.468;2023-04-24T04:20:16;3.80;99.90
22450;DHT22;11392;57.390;-2.468;2023-04-24T04:22:43;3.80;99.90
22450;DHT22;11392;57.390;-2.468;2023-04-24T04:25:10;3.80;99.90
22450;DHT22;11392;57.390;-2.468;2023-04-24T04:27:38;3.70;99.90
22450;DHT22;11392;57.390;-2.468;2023-04-24T04:30:06;3.70;99.90
22450;DHT22;11392;57.390;-2.468;2023-04-24T04:32:34;3.70;99.90
22450;DHT22;11392;57.390;-2.468;2023-04-24T04:35:01;3.70;99.90
22450;DHT22;11392;57.390;-2.468;2023-04-24T04:37:33;3.70;99.90
22450;DHT22;11392;57.390;-2.468;2023-04-24T04:40:00;3.70;99.90
22450;DHT22;11392;57.390;-2.468;2023-04-24T04:42:28;3.70;99.90
22450;DHT22;11392;57.390;-2.468;2023-04-24T04:44:55;3.70;99.90
22450;DHT22;11392;57.390;-2.468;2023-04-24T04:47:24;3.70;99.90
22450;DHT22;11392;57.390;-2.468;2023-04-24T04:49:51;3.70;99.90
22450;DHT22;11392;57.390;-2.468;2023-04-24T04:52:19;3.70;99.90
22450;DHT22;11392;57.390;-2.468;2023-04-24T04:54:46;3.70;99.90
22450;DHT22;11392;57.390;-2.468;2023-04-24T04:57:13;3.70;99.90
22450;DHT22;11392;57.390;-2.468;2023-04-24T04:59:40;3.70;99.90
22450;DHT22;11392;57.390;-2.468;2023-04-24T05:02:08;3.70;99.90
22450;DHT22;11392;57.390;-2.468;2023-04-24T05:04:35;3.80;99.90
22450;DHT22;11392;57.390;-2.468;2023-04-24T05:07:03;3.80;99.90
22450;DHT22;11392;57.390;-2.468;2023-04-24T05:09:30;3.80;99.90
22450;DHT22;11392;57.390;-2.468;2023-04-24T05:11:57;3.80;99.90
22450;DHT22;11392;57.390;-2.468;2023-04-24T05:14:24;3.80;99.90
22450;DHT22;11392;57.390;-2.468;2023-04-24T05:16:51;3.70;99.90
22450;DHT22;11392;57.390;-2.468;2023-04-24T05:19:18;3.70;99.90
22450;DHT22;11392;57.390;-2.468;2023-04-24T05:21:45;3.70;99.90
22450;DHT22;11392;57.390;-2.468;2023-04-24T05:24:12;3.80;99.90
22450;DHT22;11392;57.390;-2.468;2023-04-24T05:26:40;3.80;99.90
22450;DHT22;11392;57.390;-2.468;2023-04-24T05:29:07;3.80;99.90
22450;DHT22;11392;57.390;-2.468;2023-04-24T05:31:34;3.80;99.90
22450;DHT22;11392;57.390;-2.468;2023-04-24T05:34:01;3.80;99.90
22450;DHT22;11392;57.390;-2.468;2023-04-24T05:36:28;3.80;99.90
22450;DHT22;11392;57.390;-2.468;2023-04-24T05:38:55;3.70;99.90
22450;DHT22;11392;57.390;-2.468;2023-04-24T05:41:23;3.70;99.90
22450;DHT22;11392;57.390;-2.468;2023-04-24T05:43:50;3.60;99.90
22450;DHT22;11392;57.390;-2.468;2023-04-24T05:46:18;3.60;99.90
22450;DHT22;11392;57.390;-2.468;2023-04-24T05:48:45;3.60;99.90
22450;DHT22;11392;57.390;-2.468;2023-04-24T05:51:12;3.60;99.90
22450;DHT22;11392;57.390;-2.468;2023-04-24T05:53:39;3.70;99.90
22450;DHT22;11392;57.390;-2.468;2023-04-24T05:56:07;3.70;99.90
22450;DHT22;11392;57.390;-2.468;2023-04-24T05:58:34;3.80;99.90
22450;DHT22;11392;57.390;-2.468;2023-04-24T06:01:01;3.90;99.90
22450;DHT22;11392;57.390;-2.468;2023-04-24T06:03:29;3.90;99.90
22450;DHT22;11392;57.390;-2.468;2023-04-24T06:05:56;4.00;99.90
22450;DHT22;11392;57.390;-2.468;2023-04-24T06:08:23;4.00;99.90
22450;DHT22;11392;57.390;-2.468;2023-04-24T06:10:50;4.20;99.90
22450;DHT22;11392;57.390;-2.468;2023-04-24T06:13:17;4.20;99.90
22450;DHT22;11392;57.390;-2.468;2023-04-24T06:15:44;4.30;99.90
22450;DHT22;11392;57.390;-2.468;2023-04-24T06:18:11;4.30;99.90
22450;DHT22;11392;57.390;-2.468;2023-04-24T06:20:39;4.40;99.90
22450;DHT22;11392;57.390;-2.468;2023-04-24T06:23:06;4.40;99.90
22450;DHT22;11392;57.390;-2.468;2023-04-24T06:25:34;4.30;99.90
22450;DHT22;11392;57.390;-2.468;2023-04-24T06:28:01;4.30;99.90
22450;DHT22;11392;57.390;-2.468;2023-04-24T06:30:29;4.20;99.90
22450;DHT22;11392;57.390;-2.468;2023-04-24T06:32:56;4.30;99.90
22450;DHT22;11392;57.390;-2.468;2023-04-24T06:35:31;4.30;99.90
22450;DHT22;11392;57.390;-2.468;2023-04-24T06:37:58;4.40;99.90
22450;DHT22;11392;57.390;-2.468;2023-04-24T06:40:25;4.40;99.90
22450;DHT22;11392;57.390;-2.468;2023-04-24T06:42:52;4.50;99.90
22450;DHT22;11392;57.390;-2.468;2023-04-24T06:45:19;4.50;99.90
22450;DHT22;11392;57.390;-2.468;2023-04-24T06:47:47;4.60;99.90
22450;DHT22;11392;57.390;-2.468;2023-04-24T06:50:14;4.60;99.90
22450;DHT22;11392;57.390;-2.468;2023-04-24T06:52:41;4.60;99.90
22450;DHT22;11392;57.390;-2.468;2023-04-24T06:55:08;4.50;99.90
22450;DHT22;11392;57.390;-2.468;2023-04-24T06:57:35;4.50;99.90
22450;DHT22;11392;57.390;-2.468;2023-04-24T07:00:03;4.40;99.90
22450;DHT22;11392;57.390;-2.468;2023-04-24T07:02:32;4.30;99.90
22450;DHT22;11392;57.390;-2.468;2023-04-24T07:04:59;4.40;99.90
22450;DHT22;11392;57.390;-2.468;2023-04-24T07:07:26;4.40;99.90
22450;DHT22;11392;57.390;-2.468;2023-04-24T07:09:54;4.50;99.90
22450;DHT22;11392;57.390;-2.468;2023-04-24T07:12:23;4.50;99.90
22450;DHT22;11392;57.390;-2.468;2023-04-24T07:14:50;4.60;99.90
22450;DHT22;11392;57.390;-2.468;2023-04-24T07:17:17;4.70;99.90
22450;DHT22;11392;57.390;-2.468;2023-04-24T07:19:44;4.80;99.90
22450;DHT22;11392;57.390;-2.468;2023-04-24T07:22:12;4.90;99.90
22450;DHT22;11392;57.390;-2.468;2023-04-24T07:24:44;4.90;99.90
22450;DHT22;11392;57.390;-2.468;2023-04-24T07:27:11;4.90;99.90
22450;DHT22;11392;57.390;-2.468;2023-04-24T07:29:38;5.20;99.90
22450;DHT22;11392;57.390;-2.468;2023-04-24T07:32:07;5.50;99.90
22450;DHT22;11392;57.390;-2.468;2023-04-24T07:34:35;5.50;99.90
22450;DHT22;11392;57.390;-2.468;2023-04-24T07:37:02;5.60;99.90
22450;DHT22;11392;57.390;-2.468;2023-04-24T07:39:29;5.60;99.90
22450;DHT22;11392;57.390;-2.468;2023-04-24T07:41:57;5.50;99.90
22450;DHT22;11392;57.390;-2.468;2023-04-24T07:44:25;5.30;99.90
22450;DHT22;11392;57.390;-2.468;2023-04-24T07:46:53;5.10;99.90
22450;DHT22;11392;57.390;-2.468;2023-04-24T07:49:20;5.30;99.90
22450;DHT22;11392;57.390;-2.468;2023-04-24T07:51:47;5.80;99.90
22450;DHT22;11392;57.390;-2.468;2023-04-24T07:54:14;6.10;99.90
22450;DHT22;11392;57.390;-2.468;2023-04-24T07:56:42;6.00;99.90
22450;DHT22;11392;57.390;-2.468;2023-04-24T07:59:10;6.00;99.90
22450;DHT22;11392;57.390;-2.468;2023-04-24T08:01:37;5.90;99.90
22450;DHT22;11392;57.390;-2.468;2023-04-24T08:04:05;5.80;99.90
22450;DHT22;11392;57.390;-2.468;2023-04-24T08:06:33;5.60;99.90
22450;DHT22;11392;57.390;-2.468;2023-04-24T08:09:00;5.50;99.90
22450;DHT22;11392;57.390;-2.468;2023-04-24T08:11:27;5.80;99.90
22450;DHT22;11392;57.390;-2.468;2023-04-24T08:13:54;6.50;99.90
22450;DHT22;11392;57.390;-2.468;2023-04-24T08:16:22;7.10;99.90
22450;DHT22;11392;57.390;-2.468;2023-04-24T08:18:51;7.60;99.90
22450;DHT22;11392;57.390;-2.468;2023-04-24T08:21:18;8.00;99.90
22450;DHT22;11392;57.390;-2.468;2023-04-24T08:23:45;8.50;99.90
22450;DHT22;11392;57.390;-2.468;2023-04-24T08:26:13;8.90;99.90
22450;DHT22;11392;57.390;-2.468;2023-04-24T08:28:40;9.20;99.90
22450;DHT22;11392;57.390;-2.468;2023-04-24T08:31:07;9.50;99.90
22450;DHT22;11392;57.390;-2.468;2023-04-24T08:33:34;9.50;99.90
22450;DHT22;11392;57.390;-2.468;2023-04-24T08:36:05;9.20;99.90
22450;DHT22;11392;57.390;-2.468;2023-04-24T08:38:33;9.30;99.90
22450;DHT22;11392;57.390;-2.468;2023-04-24T08:41:01;9.40;99.90
22450;DHT22;11392;57.390;-2.468;2023-04-24T08:43:28;9.30;99.90
22450;DHT22;11392;57.390;-2.468;2023-04-24T08:45:57;9.40;99.90
22450;DHT22;11392;57.390;-2.468;2023-04-24T08:48:24;9.30;99.90
22450;DHT22;11392;57.390;-2.468;2023-04-24T08:50:58;9.10;99.90
22450;DHT22;11392;57.390;-2.468;2023-04-24T08:53:26;8.70;99.90
22450;DHT22;11392;57.390;-2.468;2023-04-24T08:55:55;8.40;99.90
22450;DHT22;11392;57.390;-2.468;2023-04-24T08:58:25;8.70;99.90
22450;DHT22;11392;57.390;-2.468;2023-04-24T09:00:55;8.80;99.90
22450;DHT22;11392;57.390;-2.468;2023-04-24T09:03:22;8.40;99.90
22450;DHT22;11392;57.390;-2.468;2023-04-24T09:05:50;7.90;99.90
22450;DHT22;11392;57.390;-2.468;2023-04-24T09:08:18;7.30;99.90
22450;DHT22;11392;57.390;-2.468;2023-04-24T09:10:46;6.70;99.90
22450;DHT22;11392;57.390;-2.468;2023-04-24T09:13:17;6.30;99.90
22450;DHT22;11392;57.390;-2.468;2023-04-24T09:15:45;6.10;99.90
22450;DHT22;11392;57.390;-2.468;2023-04-24T09:18:12;5.90;99.90
22450;DHT22;11392;57.390;-2.468;2023-04-24T09:21:01;5.80;99.90
22450;DHT22;11392;57.390;-2.468;2023-04-24T09:23:30;5.70;99.90
22450;DHT22;11392;57.390;-2.468;2023-04-24T09:26:00;5.70;99.90
22450;DHT22;11392;57.390;-2.468;2023-04-24T09:31:18;5.60;99.90
22450;DHT22;11392;57.390;-2.468;2023-04-24T09:34:02;5.60;99.90
22450;DHT22;11392;57.390;-2.468;2023-04-24T09:36:43;5.60;99.90
22450;DHT22;11392;57.390;-2.468;2023-04-24T09:39:15;5.80;99.90
22450;DHT22;11392;57.390;-2.468;2023-04-24T09:44:16;6.10;99.90
22450;DHT22;11392;57.390;-2.468;2023-04-24T09:46:46;6.20;99.90
22450;DHT22;11392;57.390;-2.468;2023-04-24T09:49:23;6.20;99.90
22450;DHT22;11392;57.390;-2.468;2023-04-24T09:51:52;6.20;99.90
22450;DHT22;11392;57.390;-2.468;2023-04-24T09:54:28;6.10;99.90
22450;DHT22;11392;57.390;-2.468;2023-04-24T09:56:56;6.20;99.90
22450;DHT22;11392;57.390;-2.468;2023-04-24T09:59:24;6.20;99.90
22450;DHT22;11392;57.390;-2.468;2023-04-24T10:01:51;6.30;99.90
22450;DHT22;11392;57.390;-2.468;2023-04-24T10:04:23;6.40;99.90
22450;DHT22;11392;57.390;-2.468;2023-04-24T10:06:53;6.50;99.90
22450;DHT22;11392;57.390;-2.468;2023-04-24T10:09:25;6.50;99.90
22450;DHT22;11392;57.390;-2.468;2023-04-24T10:11:54;6.70;99.90
22450;DHT22;11392;57.390;-2.468;2023-04-24T10:14:23;7.10;99.90
22450;DHT22;11392;57.390;-2.468;2023-04-24T10:16:54;7.50;99.90
22450;DHT22;11392;57.390;-2.468;2023-04-24T10:19:21;7.70;99.90
22450;DHT22;11392;57.390;-2.468;2023-04-24T10:21:51;7.80;99.90
22450;DHT22;11392;57.390;-2.468;2023-04-24T10:24:19;7.60;99.90
22450;DHT22;11392;57.390;-2.468;2023-04-24T10:26:48;7.50;99.90
22450;DHT22;11392;57.390;-2.468;2023-04-24T10:29:17;7.40;99.90
22450;DHT22;11392;57.390;-2.468;2023-04-24T10:31:45;7.40;99.90
22450;DHT22;11392;57.390;-2.468;2023-04-24T10:34:15;7.40;99.90
22450;DHT22;11392;57.390;-2.468;2023-04-24T10:36:48;7.70;99.90
22450;DHT22;11392;57.390;-2.468;2023-04-24T10:39:16;7.80;99.90
22450;DHT22;11392;57.390;-2.468;2023-04-24T10:41:43;8.10;99.90
22450;DHT22;11392;57.390;-2.468;2023-04-24T10:44:14;8.20;99.90
22450;DHT22;11392;57.390;-2.468;2023-04-24T10:46:46;8.40;99.90
22450;DHT22;11392;57.390;-2.468;2023-04-24T10:49:16;8.60;99.90
22450;DHT22;11392;57.390;-2.468;2023-04-24T10:51:54;8.70;99.90
22450;DHT22;11392;57.390;-2.468;2023-04-24T10:54:41;8.80;99.90
22450;DHT22;11392;57.390;-2.468;2023-04-24T10:59:51;8.50;99.90
22450;DHT22;11392;57.390;-2.468;2023-04-24T11:02:36;8.90;99.90
22450;DHT22;11392;57.390;-2.468;2023-04-24T11:05:04;9.40;99.90
22450;DHT22;11392;57.390;-2.468;2023-04-24T11:10:47;10.40;99.90
22450;DHT22;11392;57.390;-2.468;2023-04-24T11:13:16;10.60;99.90
22450;DHT22;11392;57.390;-2.468;2023-04-24T11:15:43;10.10;99.90
22450;DHT22;11392;57.390;-2.468;2023-04-24T11:18:16;10.40;99.90
22450;DHT22;11392;57.390;-2.468;2023-04-24T11:20:44;10.60;99.90
22450;DHT22;11392;57.390;-2.468;2023-04-24T11:23:13;10.90;99.90
22450;DHT22;11392;57.390;-2.468;2023-04-24T11:25:41;11.30;99.90
22450;DHT22;11392;57.390;-2.468;2023-04-24T11:28:14;11.90;99.90
22450;DHT22;11392;57.390;-2.468;2023-04-24T11:30:42;12.00;99.90
22450;DHT22;11392;57.390;-2.468;2023-04-24T11:33:09;11.40;99.90
22450;DHT22;11392;57.390;-2.468;2023-04-24T11:35:40;10.70;99.90
22450;DHT22;11392;57.390;-2.468;2023-04-24T11:38:07;10.00;99.90
22450;DHT22;11392;57.390;-2.468;2023-04-24T11:40:50;9.80;99.90
22450;DHT22;11392;57.390;-2.468;2023-04-24T11:43:18;9.50;99.90
22450;DHT22;11392;57.390;-2.468;2023-04-24T11:45:50;9.00;99.90
22450;DHT22;11392;57.390;-2.468;2023-04-24T11:48:20;8.80;99.90
22450;DHT22;11392;57.390;-2.468;2023-04-24T11:50:49;8.70;99.90
22450;DHT22;11392;57.390;-2.468;2023-04-24T11:53:19;8.40;99.90
22450;DHT22;11392;57.390;-2.468;2023-04-24T11:55:48;8.20;99.90
22450;DHT22;11392;57.390;-2.468;2023-04-24T11:58:20;8.10;99.90
22450;DHT22;11392;57.390;-2.468;2023-04-24T12:00:56;8.20;99.90
22450;DHT22;11392;57.390;-2.468;2023-04-24T12:03:24;8.20;99.90
22450;DHT22;11392;57.390;-2.468;2023-04-24T12:05:51;8.30;99.90
22450;DHT22;11392;57.390;-2.468;2023-04-24T12:08:28;8.40;99.90
22450;DHT22;11392;57.390;-2.468;2023-04-24T12:10:55;8.30;99.90
22450;DHT22;11392;57.390;-2.468;2023-04-24T12:13:25;7.60;99.90
22450;DHT22;11392;57.390;-2.468;2023-04-24T12:15:52;6.80;99.90
22450;DHT22;11392;57.390;-2.468;2023-04-24T12:18:23;6.20;99.90
22450;DHT22;11392;57.390;-2.468;2023-04-24T12:20:50;5.80;99.90
22450;DHT22;11392;57.390;-2.468;2023-04-24T12:23:37;5.70;99.90
22450;DHT22;11392;57.390;-2.468;2023-04-24T12:26:05;6.10;99.90
22450;DHT22;11392;57.390;-2.468;2023-04-24T12:28:36;6.40;99.90
22450;DHT22;11392;57.390;-2.468;2023-04-24T12:31:04;6.60;99.90
22450;DHT22;11392;57.390;-2.468;2023-04-24T12:33:35;6.90;99.90
22450;DHT22;11392;57.390;-2.468;2023-04-24T12:36:03;7.20;99.90
22450;DHT22;11392;57.390;-2.468;2023-04-24T12:38:32;7.20;99.90
22450;DHT22;11392;57.390;-2.468;2023-04-24T12:41:08;7.10;99.90
22450;DHT22;11392;57.390;-2.468;2023-04-24T12:43:37;7.10;99.90
22450;DHT22;11392;57.390;-2.468;2023-04-24T12:46:05;7.00;99.90
22450;DHT22;11392;57.390;-2.468;2023-04-24T12:48:32;6.90;99.90
22450;DHT22;11392;57.390;-2.468;2023-04-24T12:51:00;6.90;99.90
22450;DHT22;11392;57.390;-2.468;2023-04-24T12:53:29;7.00;99.90
22450;DHT22;11392;57.390;-2.468;2023-04-24T12:55:58;7.10;99.90
22450;DHT22;11392;57.390;-2.468;2023-04-24T12:58:25;7.30;99.90
22450;DHT22;11392;57.390;-2.468;2023-04-24T13:00:52;7.40;99.90
22450;DHT22;11392;57.390;-2.468;2023-04-24T13:03:20;7.50;99.90
22450;DHT22;11392;57.390;-2.468;2023-04-24T13:05:47;7.50;99.90
22450;DHT22;11392;57.390;-2.468;2023-04-24T13:08:14;7.50;99.90
22450;DHT22;11392;57.390;-2.468;2023-04-24T13:10:41;7.70;99.90
22450;DHT22;11392;57.390;-2.468;2023-04-24T13:13:09;7.90;99.90
22450;DHT22;11392;57.390;-2.468;2023-04-24T13:15:36;8.30;99.90
22450;DHT22;11392;57.390;-2.468;2023-04-24T13:18:03;8.40;99.90
22450;DHT22;11392;57.390;-2.468;2023-04-24T13:20:30;8.40;99.90
22450;DHT22;11392;57.390;-2.468;2023-04-24T13:22:58;8.30;99.90
22450;DHT22;11392;57.390;-2.468;2023-04-24T13:25:25;8.10;99.90
22450;DHT22;11392;57.390;-2.468;2023-04-24T13:27:53;7.80;99.90
22450;DHT22;11392;57.390;-2.468;2023-04-24T13:30:20;7.50;99.90
22450;DHT22;11392;57.390;-2.468;2023-04-24T13:32:47;7.50;99.90
22450;DHT22;11392;57.390;-2.468;2023-04-24T13:35:14;7.70;99.90
22450;DHT22;11392;57.390;-2.468;2023-04-24T13:37:41;7.60;99.90
22450;DHT22;11392;57.390;-2.468;2023-04-24T13:40:08;7.60;99.90
22450;DHT22;11392;57.390;-2.468;2023-04-24T13:42:36;7.90;99.90
22450;DHT22;11392;57.390;-2.468;2023-04-24T13:45:03;8.40;99.90
22450;DHT22;11392;57.390;-2.468;2023-04-24T13:47:50;8.60;99.90
22450;DHT22;11392;57.390;-2.468;2023-04-24T13:50:18;9.20;99.90
22450;DHT22;11392;57.390;-2.468;2023-04-24T13:52:45;9.70;99.90
22450;DHT22;11392;57.390;-2.468;2023-04-24T13:55:12;10.40;99.90
22450;DHT22;11392;57.390;-2.468;2023-04-24T13:57:39;10.80;99.90
22450;DHT22;11392;57.390;-2.468;2023-04-24T14:00:07;10.60;99.90
22450;DHT22;11392;57.390;-2.468;2023-04-24T14:02:37;10.30;99.90
22450;DHT22;11392;57.390;-2.468;2023-04-24T14:05:04;10.70;99.90
22450;DHT22;11392;57.390;-2.468;2023-04-24T14:07:32;11.00;99.90
22450;DHT22;11392;57.390;-2.468;2023-04-24T14:09:59;10.50;99.90
22450;DHT22;11392;57.390;-2.468;2023-04-24T14:12:27;9.80;99.90
22450;DHT22;11392;57.390;-2.468;2023-04-24T14:14:54;9.30;99.90
22450;DHT22;11392;57.390;-2.468;2023-04-24T14:17:21;9.30;99.90
22450;DHT22;11392;57.390;-2.468;2023-04-24T14:19:48;9.50;99.90
22450;DHT22;11392;57.390;-2.468;2023-04-24T14:22:15;9.50;99.90
22450;DHT22;11392;57.390;-2.468;2023-04-24T14:24:43;9.70;99.90
22450;DHT22;11392;57.390;-2.468;2023-04-24T14:27:10;9.60;99.90
22450;DHT22;11392;57.390;-2.468;2023-04-24T14:29:37;9.40;99.90
22450;DHT22;11392;57.390;-2.468;2023-04-24T14:32:04;9.30;99.90
22450;DHT22;11392;57.390;-2.468;2023-04-24T14:34:31;9.70;99.90
22450;DHT22;11392;57.390;-2.468;2023-04-24T14:36:58;10.30;99.90
22450;DHT22;11392;57.390;-2.468;2023-04-24T14:39:25;10.80;99.90
22450;DHT22;11392;57.390;-2.468;2023-04-24T14:41:52;10.90;99.90
22450;DHT22;11392;57.390;-2.468;2023-04-24T14:44:19;10.90;99.90
22450;DHT22;11392;57.390;-2.468;2023-04-24T14:46:48;11.10;99.90
22450;DHT22;11392;57.390;-2.468;2023-04-24T14:49:15;10.90;99.90
22450;DHT22;11392;57.390;-2.468;2023-04-24T14:51:42;10.30;99.90
22450;DHT22;11392;57.390;-2.468;2023-04-24T14:54:10;10.10;99.90
22450;DHT22;11392;57.390;-2.468;2023-04-24T14:56:37;10.00;99.90
22450;DHT22;11392;57.390;-2.468;2023-04-24T14:59:06;9.80;99.90
22450;DHT22;11392;57.390;-2.468;2023-04-24T15:01:33;9.50;99.90
22450;DHT22;11392;57.390;-2.468;2023-04-24T15:04:01;9.10;99.90
22450;DHT22;11392;57.390;-2.468;2023-04-24T15:06:30;8.90;99.90
22450;DHT22;11392;57.390;-2.468;2023-04-24T15:08:58;8.50;99.90
22450;DHT22;11392;57.390;-2.468;2023-04-24T15:11:25;8.20;99.90
22450;DHT22;11392;57.390;-2.468;2023-04-24T15:13:52;8.00;99.90
22450;DHT22;11392;57.390;-2.468;2023-04-24T15:16:19;8.10;99.90
22450;DHT22;11392;57.390;-2.468;2023-04-24T15:18:47;8.50;99.90
22450;DHT22;11392;57.390;-2.468;2023-04-24T15:21:14;8.90;99.90
22450;DHT22;11392;57.390;-2.468;2023-04-24T15:23:41;9.40;99.90
22450;DHT22;11392;57.390;-2.468;2023-04-24T15:26:08;9.70;99.90
22450;DHT22;11392;57.390;-2.468;2023-04-24T15:28:35;9.90;99.90
22450;DHT22;11392;57.390;-2.468;2023-04-24T15:31:02;10.20;99.90
22450;DHT22;11392;57.390;-2.468;2023-04-24T15:33:29;10.20;99.90
22450;DHT22;11392;57.390;-2.468;2023-04-24T15:35:56;9.80;99.90
22450;DHT22;11392;57.390;-2.468;2023-04-24T15:38:23;9.90;99.90
22450;DHT22;11392;57.390;-2.468;2023-04-24T15:40:50;9.80;99.90
22450;DHT22;11392;57.390;-2.468;2023-04-24T15:43:17;9.50;99.90
22450;DHT22;11392;57.390;-2.468;2023-04-24T15:45:44;9.30;99.90
22450;DHT22;11392;57.390;-2.468;2023-04-24T15:48:11;9.00;99.90